メインページ
METAR-TAF:

METAR-TAF

空港 :

ボゴタ, コロンビア

エルドラド国際空港

緯度: 04-43N, 経度: 074-09W, 海抜: 2547m

現時点の気象観測

当レポートは26分前の06:00(UTC)に作成
の風 4kt
気温 11°C
湿度 87%
気圧 1026 hPa
視程10km以上
高度2000ftの雲は散在している
高度7000ftの千切れ雲あり

METAR: SKBO 140600Z 01004KT 9999 SCT020 BKN070 11/09 A3031

時間: 01:26 (06:26 UTC)

予報

当レポートは1時間26分前の05:00(UTC)に作成
予報は14日の 06時(UTC)から 15日の 06時(UTC)まで有効
北東の風 4kt
視程10km以上
高度2000ftの雲は散在している
14日の 06時(UTC)から 14日の 09時(UTC)まで一時的に
視程: 8000m
高度1700ftの雲は散在している
近辺で霧, 近辺でにわか雨
14日の 09時(UTC)から 14日の 13時(UTC)まで一時的に
視程: 7000m
高度1500ftの雲は散在している
浅い霧
14日の 17時(UTC)から 14日の 23時(UTC)まで一時的に
北西の風 10kt
確率 40% :
14日の 21時(UTC)から 14日の 23時(UTC)まで一時的に
視程: 8000m
高度1800ftの雲は散在している, 塔状積雲.
近辺でにわか雨

TAF: SKBO 140500Z 1406/1506 04004KT 9999 SCT020 TEMPO 1406/1409 8000 VCFG VCSH SCT017 TEMPO 1409/1413 7000 MIFG SCT015 TEMPO 1417/1423 32010KT PROB40 TEMPO 1421/1423 8000 VCSH SCT018TCU TX21/1418Z TN09/1411Z

4,000以上の空港の気象観測と天気予報(METAR報とTAF報)

利用可能な観測所は地図上に黄色い丸と赤い丸で示す。

丸の上にカーソルを重ねると観測所名を参照できる。

次にクリックすると気象観測と天気予報を参照できる。

マップの切り替え:黒色「×」印の緑ボタンをクリックして拡大、「-」印の緑ボタンをクリックして縮小、緑色の三角印をクリックして隣りの地図に切り替え


METAR-TAF: